sensor_id;sensor_type;location;lat;lon;timestamp;P1;durP1;ratioP1;P2;durP2;ratioP2
75691;SDS011;64307;52.508;6.090;2023-12-28T00:01:04;7.20;;;2.67;;
75691;SDS011;64307;52.508;6.090;2023-12-28T00:05:54;3.58;;;2.30;;
75691;SDS011;64307;52.508;6.090;2023-12-28T00:08:19;4.93;;;2.60;;
75691;SDS011;64307;52.508;6.090;2023-12-28T00:10:44;4.67;;;2.10;;
75691;SDS011;64307;52.508;6.090;2023-12-28T00:13:10;4.88;;;2.15;;
75691;SDS011;64307;52.508;6.090;2023-12-28T00:15:35;8.27;;;2.23;;
75691;SDS011;64307;52.508;6.090;2023-12-28T00:18:00;5.67;;;2.37;;
75691;SDS011;64307;52.508;6.090;2023-12-28T00:20:25;4.20;;;2.40;;
75691;SDS011;64307;52.508;6.090;2023-12-28T00:22:51;6.20;;;2.17;;
75691;SDS011;64307;52.508;6.090;2023-12-28T00:25:16;4.77;;;1.63;;
75691;SDS011;64307;52.508;6.090;2023-12-28T00:27:41;4.27;;;2.30;;
75691;SDS011;64307;52.508;6.090;2023-12-28T00:30:06;4.27;;;2.53;;
75691;SDS011;64307;52.508;6.090;2023-12-28T00:32:31;5.47;;;2.00;;
75691;SDS011;64307;52.508;6.090;2023-12-28T00:34:57;6.83;;;2.93;;
75691;SDS011;64307;52.508;6.090;2023-12-28T00:37:22;4.15;;;2.53;;
75691;SDS011;64307;52.508;6.090;2023-12-28T00:39:47;5.77;;;2.40;;
75691;SDS011;64307;52.508;6.090;2023-12-28T00:42:14;4.20;;;2.72;;
75691;SDS011;64307;52.508;6.090;2023-12-28T00:44:40;5.57;;;2.63;;
75691;SDS011;64307;52.508;6.090;2023-12-28T00:47:06;8.77;;;3.17;;
75691;SDS011;64307;52.508;6.090;2023-12-28T00:49:32;5.28;;;2.25;;
75691;SDS011;64307;52.508;6.090;2023-12-28T00:51:57;6.00;;;2.77;;
75691;SDS011;64307;52.508;6.090;2023-12-28T00:54:22;5.03;;;2.23;;
75691;SDS011;64307;52.508;6.090;2023-12-28T00:56:47;3.80;;;2.13;;
75691;SDS011;64307;52.508;6.090;2023-12-28T00:59:12;6.87;;;2.43;;
75691;SDS011;64307;52.508;6.090;2023-12-28T01:01:38;6.70;;;2.67;;
75691;SDS011;64307;52.508;6.090;2023-12-28T01:04:03;6.07;;;2.47;;
75691;SDS011;64307;52.508;6.090;2023-12-28T01:06:28;5.35;;;2.42;;
75691;SDS011;64307;52.508;6.090;2023-12-28T01:08:56;6.90;;;2.78;;
75691;SDS011;64307;52.508;6.090;2023-12-28T01:11:22;8.25;;;2.35;;
75691;SDS011;64307;52.508;6.090;2023-12-28T01:13:47;6.87;;;2.33;;
75691;SDS011;64307;52.508;6.090;2023-12-28T01:16:13;10.03;;;2.30;;
75691;SDS011;64307;52.508;6.090;2023-12-28T01:21:03;8.50;;;2.30;;
75691;SDS011;64307;52.508;6.090;2023-12-28T01:23:30;11.38;;;3.20;;
75691;SDS011;64307;52.508;6.090;2023-12-28T01:25:56;8.20;;;2.95;;
75691;SDS011;64307;52.508;6.090;2023-12-28T01:28:21;5.18;;;2.17;;
75691;SDS011;64307;52.508;6.090;2023-12-28T01:30:46;6.87;;;2.63;;
75691;SDS011;64307;52.508;6.090;2023-12-28T01:33:12;5.67;;;2.10;;
75691;SDS011;64307;52.508;6.090;2023-12-28T01:35:37;5.53;;;2.50;;
75691;SDS011;64307;52.508;6.090;2023-12-28T01:38:02;9.83;;;2.10;;
75691;SDS011;64307;52.508;6.090;2023-12-28T01:40:28;9.13;;;2.40;;
75691;SDS011;64307;52.508;6.090;2023-12-28T01:42:53;7.32;;;2.05;;
75691;SDS011;64307;52.508;6.090;2023-12-28T01:45:19;8.90;;;2.33;;
75691;SDS011;64307;52.508;6.090;2023-12-28T01:47:44;7.17;;;1.70;;
75691;SDS011;64307;52.508;6.090;2023-12-28T01:50:09;6.50;;;2.33;;
75691;SDS011;64307;52.508;6.090;2023-12-28T01:52:34;8.80;;;2.40;;
75691;SDS011;64307;52.508;6.090;2023-12-28T01:55:00;6.18;;;1.55;;
75691;SDS011;64307;52.508;6.090;2023-12-28T01:57:25;5.68;;;1.45;;
75691;SDS011;64307;52.508;6.090;2023-12-28T01:59:51;8.18;;;2.33;;
75691;SDS011;64307;52.508;6.090;2023-12-28T02:02:16;8.02;;;2.10;;
75691;SDS011;64307;52.508;6.090;2023-12-28T02:04:42;6.35;;;2.47;;
75691;SDS011;64307;52.508;6.090;2023-12-28T02:07:07;6.40;;;1.98;;
75691;SDS011;64307;52.508;6.090;2023-12-28T02:09:33;7.35;;;2.47;;
75691;SDS011;64307;52.508;6.090;2023-12-28T02:11:58;9.20;;;1.60;;
75691;SDS011;64307;52.508;6.090;2023-12-28T02:14:25;4.97;;;2.35;;
75691;SDS011;64307;52.508;6.090;2023-12-28T02:17:03;5.90;;;2.33;;
75691;SDS011;64307;52.508;6.090;2023-12-28T02:21:54;5.20;;;2.30;;
75691;SDS011;64307;52.508;6.090;2023-12-28T02:24:20;4.57;;;2.40;;
75691;SDS011;64307;52.508;6.090;2023-12-28T02:26:45;4.50;;;1.90;;
75691;SDS011;64307;52.508;6.090;2023-12-28T02:29:10;4.40;;;2.33;;
75691;SDS011;64307;52.508;6.090;2023-12-28T02:31:37;7.20;;;2.17;;
75691;SDS011;64307;52.508;6.090;2023-12-28T02:34:05;6.18;;;1.98;;
75691;SDS011;64307;52.508;6.090;2023-12-28T02:36:31;7.70;;;2.35;;
75691;SDS011;64307;52.508;6.090;2023-12-28T02:39:01;4.97;;;2.33;;
75691;SDS011;64307;52.508;6.090;2023-12-28T02:41:28;4.78;;;2.42;;
75691;SDS011;64307;52.508;6.090;2023-12-28T02:43:54;7.43;;;2.45;;
75691;SDS011;64307;52.508;6.090;2023-12-28T02:46:19;5.00;;;1.77;;
75691;SDS011;64307;52.508;6.090;2023-12-28T02:48:45;7.47;;;2.33;;
75691;SDS011;64307;52.508;6.090;2023-12-28T02:51:11;4.78;;;2.15;;
75691;SDS011;64307;52.508;6.090;2023-12-28T02:53:36;5.57;;;2.27;;
75691;SDS011;64307;52.508;6.090;2023-12-28T02:56:01;8.80;;;2.70;;
75691;SDS011;64307;52.508;6.090;2023-12-28T02:58:26;4.70;;;1.83;;
75691;SDS011;64307;52.508;6.090;2023-12-28T03:00:52;6.03;;;1.97;;
75691;SDS011;64307;52.508;6.090;2023-12-28T03:03:17;7.17;;;2.17;;
75691;SDS011;64307;52.508;6.090;2023-12-28T03:05:42;6.32;;;2.10;;
75691;SDS011;64307;52.508;6.090;2023-12-28T03:08:07;7.23;;;1.97;;
75691;SDS011;64307;52.508;6.090;2023-12-28T03:10:32;6.10;;;1.97;;
75691;SDS011;64307;52.508;6.090;2023-12-28T03:12:58;5.07;;;2.83;;
75691;SDS011;64307;52.508;6.090;2023-12-28T03:15:24;3.38;;;2.08;;
75691;SDS011;64307;52.508;6.090;2023-12-28T03:17:49;5.60;;;2.47;;
75691;SDS011;64307;52.508;6.090;2023-12-28T03:20:14;8.37;;;1.97;;
75691;SDS011;64307;52.508;6.090;2023-12-28T03:22:42;7.50;;;1.92;;
75691;SDS011;64307;52.508;6.090;2023-12-28T03:25:07;5.65;;;2.28;;
75691;SDS011;64307;52.508;6.090;2023-12-28T03:27:32;4.53;;;2.20;;
75691;SDS011;64307;52.508;6.090;2023-12-28T03:29:57;2.93;;;1.70;;
75691;SDS011;64307;52.508;6.090;2023-12-28T03:32:23;8.03;;;1.70;;
75691;SDS011;64307;52.508;6.090;2023-12-28T03:34:48;5.77;;;1.20;;
75691;SDS011;64307;52.508;6.090;2023-12-28T03:37:13;8.03;;;2.23;;
75691;SDS011;64307;52.508;6.090;2023-12-28T03:39:38;7.33;;;1.70;;
75691;SDS011;64307;52.508;6.090;2023-12-28T03:42:04;6.43;;;1.87;;
75691;SDS011;64307;52.508;6.090;2023-12-28T03:44:29;6.53;;;2.00;;
75691;SDS011;64307;52.508;6.090;2023-12-28T03:46:54;5.00;;;1.57;;
75691;SDS011;64307;52.508;6.090;2023-12-28T03:49:19;7.22;;;1.98;;
75691;SDS011;64307;52.508;6.090;2023-12-28T03:51:45;6.45;;;1.77;;
75691;SDS011;64307;52.508;6.090;2023-12-28T03:54:11;5.22;;;1.63;;
75691;SDS011;64307;52.508;6.090;2023-12-28T03:56:36;4.95;;;1.77;;
75691;SDS011;64307;52.508;6.090;2023-12-28T03:59:04;9.05;;;1.60;;
75691;SDS011;64307;52.508;6.090;2023-12-28T04:01:29;7.90;;;1.97;;
75691;SDS011;64307;52.508;6.090;2023-12-28T04:03:55;11.23;;;2.03;;
75691;SDS011;64307;52.508;6.090;2023-12-28T04:06:20;7.80;;;1.87;;
75691;SDS011;64307;52.508;6.090;2023-12-28T04:08:45;4.93;;;2.10;;
75691;SDS011;64307;52.508;6.090;2023-12-28T04:11:10;11.47;;;1.57;;
75691;SDS011;64307;52.508;6.090;2023-12-28T04:13:35;8.20;;;1.90;;
75691;SDS011;64307;52.508;6.090;2023-12-28T04:16:01;10.93;;;1.90;;
75691;SDS011;64307;52.508;6.090;2023-12-28T04:20:51;8.38;;;2.17;;
75691;SDS011;64307;52.508;6.090;2023-12-28T04:23:16;6.87;;;2.00;;
75691;SDS011;64307;52.508;6.090;2023-12-28T04:25:41;10.20;;;1.80;;
75691;SDS011;64307;52.508;6.090;2023-12-28T04:28:06;8.60;;;2.33;;
75691;SDS011;64307;52.508;6.090;2023-12-28T04:30:32;9.83;;;1.50;;
75691;SDS011;64307;52.508;6.090;2023-12-28T04:32:57;9.57;;;2.25;;
75691;SDS011;64307;52.508;6.090;2023-12-28T04:35:22;8.30;;;1.50;;
75691;SDS011;64307;52.508;6.090;2023-12-28T04:37:47;9.10;;;1.70;;
75691;SDS011;64307;52.508;6.090;2023-12-28T04:42:39;7.60;;;2.15;;
75691;SDS011;64307;52.508;6.090;2023-12-28T04:45:04;5.15;;;1.63;;
75691;SDS011;64307;52.508;6.090;2023-12-28T04:47:30;9.25;;;1.77;;
75691;SDS011;64307;52.508;6.090;2023-12-28T04:49:55;6.83;;;1.47;;
75691;SDS011;64307;52.508;6.090;2023-12-28T04:52:23;5.15;;;1.25;;
75691;SDS011;64307;52.508;6.090;2023-12-28T04:57:16;6.53;;;1.73;;
75691;SDS011;64307;52.508;6.090;2023-12-28T04:59:41;6.10;;;1.65;;
75691;SDS011;64307;52.508;6.090;2023-12-28T05:02:07;14.50;;;3.15;;
75691;SDS011;64307;52.508;6.090;2023-12-28T05:06:57;9.20;;;1.92;;
75691;SDS011;64307;52.508;6.090;2023-12-28T05:09:22;11.53;;;2.23;;
75691;SDS011;64307;52.508;6.090;2023-12-28T05:11:48;9.10;;;2.53;;
75691;SDS011;64307;52.508;6.090;2023-12-28T05:14:13;7.33;;;1.43;;
75691;SDS011;64307;52.508;6.090;2023-12-28T05:19:04;17.58;;;2.38;;
75691;SDS011;64307;52.508;6.090;2023-12-28T05:21:29;12.43;;;2.17;;
75691;SDS011;64307;52.508;6.090;2023-12-28T05:23:54;8.33;;;1.40;;
75691;SDS011;64307;52.508;6.090;2023-12-28T05:26:19;7.27;;;1.67;;
75691;SDS011;64307;52.508;6.090;2023-12-28T05:28:44;8.90;;;1.87;;
75691;SDS011;64307;52.508;6.090;2023-12-28T05:31:10;5.13;;;1.13;;
75691;SDS011;64307;52.508;6.090;2023-12-28T05:33:36;8.37;;;1.83;;
75691;SDS011;64307;52.508;6.090;2023-12-28T05:36:01;9.18;;;1.65;;
75691;SDS011;64307;52.508;6.090;2023-12-28T05:38:27;6.80;;;1.67;;
75691;SDS011;64307;52.508;6.090;2023-12-28T05:40:52;8.67;;;1.67;;
75691;SDS011;64307;52.508;6.090;2023-12-28T05:43:17;5.30;;;1.43;;
75691;SDS011;64307;52.508;6.090;2023-12-28T05:45:42;10.87;;;2.03;;
75691;SDS011;64307;52.508;6.090;2023-12-28T05:50:33;7.90;;;1.70;;
75691;SDS011;64307;52.508;6.090;2023-12-28T05:52:58;10.27;;;2.13;;
75691;SDS011;64307;52.508;6.090;2023-12-28T05:55:23;6.80;;;1.73;;
75691;SDS011;64307;52.508;6.090;2023-12-28T05:57:48;10.53;;;2.07;;
75691;SDS011;64307;52.508;6.090;2023-12-28T06:00:14;6.85;;;1.52;;
75691;SDS011;64307;52.508;6.090;2023-12-28T06:02:39;9.20;;;1.67;;
75691;SDS011;64307;52.508;6.090;2023-12-28T06:05:05;6.65;;;1.58;;
75691;SDS011;64307;52.508;6.090;2023-12-28T06:07:30;8.30;;;2.47;;
75691;SDS011;64307;52.508;6.090;2023-12-28T06:12:21;6.68;;;1.80;;
75691;SDS011;64307;52.508;6.090;2023-12-28T06:14:46;9.45;;;1.95;;
75691;SDS011;64307;52.508;6.090;2023-12-28T06:17:11;7.67;;;1.70;;
75691;SDS011;64307;52.508;6.090;2023-12-28T06:19:36;6.03;;;1.37;;
75691;SDS011;64307;52.508;6.090;2023-12-28T06:22:02;6.77;;;1.57;;
75691;SDS011;64307;52.508;6.090;2023-12-28T06:24:27;6.30;;;1.50;;
75691;SDS011;64307;52.508;6.090;2023-12-28T06:26:52;8.73;;;1.83;;
75691;SDS011;64307;52.508;6.090;2023-12-28T06:29:17;10.83;;;1.97;;
75691;SDS011;64307;52.508;6.090;2023-12-28T06:31:42;8.97;;;1.73;;
75691;SDS011;64307;52.508;6.090;2023-12-28T06:34:07;7.43;;;1.13;;
75691;SDS011;64307;52.508;6.090;2023-12-28T06:36:33;11.33;;;1.67;;
75691;SDS011;64307;52.508;6.090;2023-12-28T06:41:24;8.18;;;1.60;;
75691;SDS011;64307;52.508;6.090;2023-12-28T06:43:49;10.60;;;3.22;;
75691;SDS011;64307;52.508;6.090;2023-12-28T06:46:14;9.27;;;1.33;;
75691;SDS011;64307;52.508;6.090;2023-12-28T06:48:41;9.87;;;1.67;;
75691;SDS011;64307;52.508;6.090;2023-12-28T06:51:06;10.25;;;1.35;;
75691;SDS011;64307;52.508;6.090;2023-12-28T06:53:31;13.07;;;1.77;;
75691;SDS011;64307;52.508;6.090;2023-12-28T06:55:57;7.82;;;1.30;;
75691;SDS011;64307;52.508;6.090;2023-12-28T06:58:23;11.85;;;1.40;;
75691;SDS011;64307;52.508;6.090;2023-12-28T07:00:48;6.90;;;1.65;;
75691;SDS011;64307;52.508;6.090;2023-12-28T07:03:13;10.90;;;2.03;;
75691;SDS011;64307;52.508;6.090;2023-12-28T07:08:04;11.88;;;1.67;;
75691;SDS011;64307;52.508;6.090;2023-12-28T07:10:29;11.38;;;2.10;;
75691;SDS011;64307;52.508;6.090;2023-12-28T07:15:19;10.07;;;1.75;;
75691;SDS011;64307;52.508;6.090;2023-12-28T07:17:44;9.27;;;1.87;;
75691;SDS011;64307;52.508;6.090;2023-12-28T07:25:00;11.13;;;2.20;;
75691;SDS011;64307;52.508;6.090;2023-12-28T07:29:51;8.93;;;1.95;;
75691;SDS011;64307;52.508;6.090;2023-12-28T07:34:41;11.77;;;1.25;;
75691;SDS011;64307;52.508;6.090;2023-12-28T07:37:07;10.13;;;2.10;;
75691;SDS011;64307;52.508;6.090;2023-12-28T07:41:57;10.35;;;1.40;;
75691;SDS011;64307;52.508;6.090;2023-12-28T07:46:48;10.85;;;1.67;;
75691;SDS011;64307;52.508;6.090;2023-12-28T07:49:16;10.10;;;2.17;;
75691;SDS011;64307;52.508;6.090;2023-12-28T07:51:41;14.02;;;2.33;;
75691;SDS011;64307;52.508;6.090;2023-12-28T07:54:06;14.63;;;2.60;;
75691;SDS011;64307;52.508;6.090;2023-12-28T07:56:31;11.97;;;2.80;;
75691;SDS011;64307;52.508;6.090;2023-12-28T08:01:22;13.57;;;2.28;;
75691;SDS011;64307;52.508;6.090;2023-12-28T08:06:12;11.10;;;2.13;;
75691;SDS011;64307;52.508;6.090;2023-12-28T08:11:03;17.53;;;2.57;;
75691;SDS011;64307;52.508;6.090;2023-12-28T08:13:28;14.32;;;2.42;;
75691;SDS011;64307;52.508;6.090;2023-12-28T08:15:53;11.17;;;2.20;;
75691;SDS011;64307;52.508;6.090;2023-12-28T08:20:44;11.53;;;1.70;;
75691;SDS011;64307;52.508;6.090;2023-12-28T08:25:34;9.77;;;2.22;;
75691;SDS011;64307;52.508;6.090;2023-12-28T08:30:24;14.63;;;2.53;;
75691;SDS011;64307;52.508;6.090;2023-12-28T08:35:15;12.65;;;1.98;;
75691;SDS011;64307;52.508;6.090;2023-12-28T08:37:40;10.65;;;2.15;;
75691;SDS011;64307;52.508;6.090;2023-12-28T08:42:30;14.07;;;2.42;;
75691;SDS011;64307;52.508;6.090;2023-12-28T08:47:21;12.02;;;2.22;;
75691;SDS011;64307;52.508;6.090;2023-12-28T08:49:48;10.07;;;2.05;;
75691;SDS011;64307;52.508;6.090;2023-12-28T08:52:14;11.00;;;2.47;;
75691;SDS011;64307;52.508;6.090;2023-12-28T08:59:30;10.10;;;2.22;;
75691;SDS011;64307;52.508;6.090;2023-12-28T09:01:55;9.27;;;1.87;;
75691;SDS011;64307;52.508;6.090;2023-12-28T09:04:21;18.00;;;2.20;;
75691;SDS011;64307;52.508;6.090;2023-12-28T09:09:12;11.48;;;1.40;;
75691;SDS011;64307;52.508;6.090;2023-12-28T09:11:37;19.17;;;2.33;;
75691;SDS011;64307;52.508;6.090;2023-12-28T09:16:27;13.25;;;1.73;;
75691;SDS011;64307;52.508;6.090;2023-12-28T09:21:18;11.67;;;2.00;;
75691;SDS011;64307;52.508;6.090;2023-12-28T09:26:09;12.68;;;1.45;;
75691;SDS011;64307;52.508;6.090;2023-12-28T09:31:00;12.35;;;2.05;;
75691;SDS011;64307;52.508;6.090;2023-12-28T09:33:26;10.23;;;1.98;;
75691;SDS011;64307;52.508;6.090;2023-12-28T09:38:18;11.55;;;2.00;;
75691;SDS011;64307;52.508;6.090;2023-12-28T09:43:12;13.63;;;1.90;;
75691;SDS011;64307;52.508;6.090;2023-12-28T09:45:39;20.15;;;3.30;;
75691;SDS011;64307;52.508;6.090;2023-12-28T09:50:29;12.57;;;2.30;;
75691;SDS011;64307;52.508;6.090;2023-12-28T09:52:56;9.93;;;1.83;;
75691;SDS011;64307;52.508;6.090;2023-12-28T09:57:46;11.07;;;2.13;;
75691;SDS011;64307;52.508;6.090;2023-12-28T10:02:37;10.73;;;2.40;;
75691;SDS011;64307;52.508;6.090;2023-12-28T10:07:29;10.00;;;1.80;;
75691;SDS011;64307;52.508;6.090;2023-12-28T10:09:56;6.68;;;1.70;;
75691;SDS011;64307;52.508;6.090;2023-12-28T10:14:46;8.13;;;1.77;;
75691;SDS011;64307;52.508;6.090;2023-12-28T10:19:36;10.37;;;2.27;;
75691;SDS011;64307;52.508;6.090;2023-12-28T10:24:27;12.80;;;1.20;;
75691;SDS011;64307;52.508;6.090;2023-12-28T10:29:17;15.48;;;2.83;;
75691;SDS011;64307;52.508;6.090;2023-12-28T10:31:42;12.97;;;2.27;;
75691;SDS011;64307;52.508;6.090;2023-12-28T10:34:08;11.73;;;2.10;;
75691;SDS011;64307;52.508;6.090;2023-12-28T10:36:35;12.03;;;1.50;;
75691;SDS011;64307;52.508;6.090;2023-12-28T10:39:06;12.43;;;1.85;;
75691;SDS011;64307;52.508;6.090;2023-12-28T10:41:32;15.35;;;2.97;;
75691;SDS011;64307;52.508;6.090;2023-12-28T10:44:04;14.90;;;2.33;;
75691;SDS011;64307;52.508;6.090;2023-12-28T10:46:32;13.70;;;2.55;;
75691;SDS011;64307;52.508;6.090;2023-12-28T10:48:59;12.38;;;2.03;;
75691;SDS011;64307;52.508;6.090;2023-12-28T10:51:24;17.80;;;2.47;;
75691;SDS011;64307;52.508;6.090;2023-12-28T10:53:54;12.27;;;2.30;;
75691;SDS011;64307;52.508;6.090;2023-12-28T11:01:24;12.50;;;2.45;;
75691;SDS011;64307;52.508;6.090;2023-12-28T11:03:52;18.20;;;2.30;;
75691;SDS011;64307;52.508;6.090;2023-12-28T11:06:22;12.88;;;1.75;;
75691;SDS011;64307;52.508;6.090;2023-12-28T11:08:48;9.82;;;2.10;;
75691;SDS011;64307;52.508;6.090;2023-12-28T11:11:16;10.93;;;2.05;;
75691;SDS011;64307;52.508;6.090;2023-12-28T11:13:42;9.85;;;2.83;;
75691;SDS011;64307;52.508;6.090;2023-12-28T11:16:09;17.17;;;2.05;;
75691;SDS011;64307;52.508;6.090;2023-12-28T11:21:00;12.45;;;1.85;;
75691;SDS011;64307;52.508;6.090;2023-12-28T11:23:25;12.05;;;1.85;;
75691;SDS011;64307;52.508;6.090;2023-12-28T11:28:18;13.05;;;1.85;;
75691;SDS011;64307;52.508;6.090;2023-12-28T11:30:44;13.23;;;1.83;;
75691;SDS011;64307;52.508;6.090;2023-12-28T11:33:12;11.27;;;2.80;;
75691;SDS011;64307;52.508;6.090;2023-12-28T11:38:03;13.00;;;2.70;;
75691;SDS011;64307;52.508;6.090;2023-12-28T11:40:31;13.50;;;2.28;;
75691;SDS011;64307;52.508;6.090;2023-12-28T11:42:56;9.13;;;1.53;;
75691;SDS011;64307;52.508;6.090;2023-12-28T11:45:22;15.00;;;2.93;;
75691;SDS011;64307;52.508;6.090;2023-12-28T11:47:57;14.32;;;2.25;;
75691;SDS011;64307;52.508;6.090;2023-12-28T11:50:23;11.82;;;2.15;;
75691;SDS011;64307;52.508;6.090;2023-12-28T11:52:49;15.30;;;2.33;;
75691;SDS011;64307;52.508;6.090;2023-12-28T11:57:39;18.85;;;2.00;;
75691;SDS011;64307;52.508;6.090;2023-12-28T12:02:29;15.02;;;3.33;;
75691;SDS011;64307;52.508;6.090;2023-12-28T12:04:54;12.57;;;2.00;;
75691;SDS011;64307;52.508;6.090;2023-12-28T12:07:22;15.43;;;2.75;;
75691;SDS011;64307;52.508;6.090;2023-12-28T12:12:12;11.57;;;2.33;;
75691;SDS011;64307;52.508;6.090;2023-12-28T12:17:03;13.02;;;2.08;;
75691;SDS011;64307;52.508;6.090;2023-12-28T12:21:54;12.15;;;2.17;;
75691;SDS011;64307;52.508;6.090;2023-12-28T12:26:47;14.73;;;1.90;;
75691;SDS011;64307;52.508;6.090;2023-12-28T12:29:13;12.52;;;2.30;;
75691;SDS011;64307;52.508;6.090;2023-12-28T12:31:39;20.48;;;2.85;;
75691;SDS011;64307;52.508;6.090;2023-12-28T12:34:06;15.35;;;2.47;;
75691;SDS011;64307;52.508;6.090;2023-12-28T12:36:32;16.42;;;3.00;;
75691;SDS011;64307;52.508;6.090;2023-12-28T12:41:22;10.65;;;1.65;;
75691;SDS011;64307;52.508;6.090;2023-12-28T12:43:47;10.35;;;2.28;;
75691;SDS011;64307;52.508;6.090;2023-12-28T12:46:14;11.68;;;2.53;;
75691;SDS011;64307;52.508;6.090;2023-12-28T12:48:40;10.73;;;2.72;;
75691;SDS011;64307;52.508;6.090;2023-12-28T12:51:05;12.40;;;1.92;;
75691;SDS011;64307;52.508;6.090;2023-12-28T12:55:56;11.38;;;2.00;;
75691;SDS011;64307;52.508;6.090;2023-12-28T13:00:49;10.30;;;2.40;;
75691;SDS011;64307;52.508;6.090;2023-12-28T13:03:15;14.80;;;2.15;;
75691;SDS011;64307;52.508;6.090;2023-12-28T13:08:09;14.32;;;3.10;;
75691;SDS011;64307;52.508;6.090;2023-12-28T13:12:59;14.27;;;2.33;;
75691;SDS011;64307;52.508;6.090;2023-12-28T13:15:26;12.60;;;1.95;;
75691;SDS011;64307;52.508;6.090;2023-12-28T13:20:16;10.38;;;2.25;;
75691;SDS011;64307;52.508;6.090;2023-12-28T13:22:41;15.97;;;2.57;;
75691;SDS011;64307;52.508;6.090;2023-12-28T13:27:32;12.60;;;2.05;;
75691;SDS011;64307;52.508;6.090;2023-12-28T13:32:22;16.98;;;2.17;;
75691;SDS011;64307;52.508;6.090;2023-12-28T13:37:14;10.30;;;1.98;;
75691;SDS011;64307;52.508;6.090;2023-12-28T13:39:39;9.95;;;2.10;;
75691;SDS011;64307;52.508;6.090;2023-12-28T13:44:33;14.10;;;2.10;;
75691;SDS011;64307;52.508;6.090;2023-12-28T13:46:58;14.23;;;1.92;;
75691;SDS011;64307;52.508;6.090;2023-12-28T13:51:52;13.50;;;2.10;;
75691;SDS011;64307;52.508;6.090;2023-12-28T13:56:44;19.88;;;2.75;;
75691;SDS011;64307;52.508;6.090;2023-12-28T14:01:35;13.93;;;1.65;;
75691;SDS011;64307;52.508;6.090;2023-12-28T14:06:25;13.32;;;2.40;;
75691;SDS011;64307;52.508;6.090;2023-12-28T14:11:15;12.88;;;2.08;;
75691;SDS011;64307;52.508;6.090;2023-12-28T14:16:06;8.73;;;1.77;;
75691;SDS011;64307;52.508;6.090;2023-12-28T14:18:33;12.60;;;2.40;;
75691;SDS011;64307;52.508;6.090;2023-12-28T14:23:23;12.03;;;1.77;;
75691;SDS011;64307;52.508;6.090;2023-12-28T14:28:18;14.40;;;2.38;;
75691;SDS011;64307;52.508;6.090;2023-12-28T14:33:09;14.00;;;2.10;;
75691;SDS011;64307;52.508;6.090;2023-12-28T14:38:04;17.52;;;2.40;;
75691;SDS011;64307;52.508;6.090;2023-12-28T14:42:55;11.13;;;1.63;;
75691;SDS011;64307;52.508;6.090;2023-12-28T14:47:47;14.35;;;2.10;;
75691;SDS011;64307;52.508;6.090;2023-12-28T14:50:13;12.25;;;2.00;;
75691;SDS011;64307;52.508;6.090;2023-12-28T14:55:07;12.70;;;1.75;;
75691;SDS011;64307;52.508;6.090;2023-12-28T14:57:32;13.35;;;2.85;;
75691;SDS011;64307;52.508;6.090;2023-12-28T15:00:00;9.03;;;1.77;;
75691;SDS011;64307;52.508;6.090;2023-12-28T15:02:27;9.52;;;1.77;;
75691;SDS011;64307;52.508;6.090;2023-12-28T15:04:52;14.38;;;2.40;;
75691;SDS011;64307;52.508;6.090;2023-12-28T15:09:44;12.93;;;2.25;;
75691;SDS011;64307;52.508;6.090;2023-12-28T15:14:34;12.38;;;2.90;;
75691;SDS011;64307;52.508;6.090;2023-12-28T15:19:25;15.75;;;1.98;;
75691;SDS011;64307;52.508;6.090;2023-12-28T15:21:52;13.07;;;2.08;;
75691;SDS011;64307;52.508;6.090;2023-12-28T15:24:18;9.00;;;1.33;;
75691;SDS011;64307;52.508;6.090;2023-12-28T15:26:44;7.53;;;2.05;;
75691;SDS011;64307;52.508;6.090;2023-12-28T15:31:35;12.63;;;1.95;;
75691;SDS011;64307;52.508;6.090;2023-12-28T15:34:01;17.48;;;2.47;;
75691;SDS011;64307;52.508;6.090;2023-12-28T15:38:51;10.20;;;2.53;;
75691;SDS011;64307;52.508;6.090;2023-12-28T15:41:16;9.73;;;2.53;;
75691;SDS011;64307;52.508;6.090;2023-12-28T15:43:41;7.87;;;1.60;;
75691;SDS011;64307;52.508;6.090;2023-12-28T15:48:32;9.80;;;2.10;;
75691;SDS011;64307;52.508;6.090;2023-12-28T15:50:57;12.43;;;2.43;;
75691;SDS011;64307;52.508;6.090;2023-12-28T15:53:22;11.93;;;1.90;;
75691;SDS011;64307;52.508;6.090;2023-12-28T15:55:48;11.93;;;2.73;;
75691;SDS011;64307;52.508;6.090;2023-12-28T15:58:13;11.47;;;2.40;;
75691;SDS011;64307;52.508;6.090;2023-12-28T16:00:40;15.60;;;2.50;;
75691;SDS011;64307;52.508;6.090;2023-12-28T16:03:05;9.93;;;2.78;;
75691;SDS011;64307;52.508;6.090;2023-12-28T16:05:30;7.17;;;2.40;;
75691;SDS011;64307;52.508;6.090;2023-12-28T16:07:56;14.10;;;2.35;;
75691;SDS011;64307;52.508;6.090;2023-12-28T16:10:21;14.60;;;3.13;;
75691;SDS011;64307;52.508;6.090;2023-12-28T16:12:47;11.38;;;2.47;;
75691;SDS011;64307;52.508;6.090;2023-12-28T16:15:13;12.73;;;2.73;;
75691;SDS011;64307;52.508;6.090;2023-12-28T16:20:03;12.23;;;2.13;;
75691;SDS011;64307;52.508;6.090;2023-12-28T16:22:29;16.40;;;2.92;;
75691;SDS011;64307;52.508;6.090;2023-12-28T16:24:54;16.55;;;2.80;;
75691;SDS011;64307;52.508;6.090;2023-12-28T16:27:19;11.73;;;2.90;;
75691;SDS011;64307;52.508;6.090;2023-12-28T16:29:44;15.80;;;2.73;;
75691;SDS011;64307;52.508;6.090;2023-12-28T16:32:09;10.03;;;2.70;;
75691;SDS011;64307;52.508;6.090;2023-12-28T16:34:35;14.63;;;2.13;;
75691;SDS011;64307;52.508;6.090;2023-12-28T16:37:01;11.90;;;2.05;;
75691;SDS011;64307;52.508;6.090;2023-12-28T16:39:26;13.35;;;3.00;;
75691;SDS011;64307;52.508;6.090;2023-12-28T16:41:52;13.07;;;3.10;;
75691;SDS011;64307;52.508;6.090;2023-12-28T16:44:17;12.93;;;2.83;;
75691;SDS011;64307;52.508;6.090;2023-12-28T16:46:43;8.00;;;2.28;;
75691;SDS011;64307;52.508;6.090;2023-12-28T16:49:08;10.68;;;3.05;;
75691;SDS011;64307;52.508;6.090;2023-12-28T16:51:33;11.97;;;2.37;;
75691;SDS011;64307;52.508;6.090;2023-12-28T16:53:58;12.50;;;2.60;;
75691;SDS011;64307;52.508;6.090;2023-12-28T16:56:24;8.57;;;2.67;;
75691;SDS011;64307;52.508;6.090;2023-12-28T16:58:50;13.33;;;2.70;;
75691;SDS011;64307;52.508;6.090;2023-12-28T17:01:16;12.95;;;2.05;;
75691;SDS011;64307;52.508;6.090;2023-12-28T17:08:32;12.18;;;2.13;;
75691;SDS011;64307;52.508;6.090;2023-12-28T17:10:57;11.60;;;1.95;;
75691;SDS011;64307;52.508;6.090;2023-12-28T17:13:23;10.98;;;2.17;;
75691;SDS011;64307;52.508;6.090;2023-12-28T17:15:48;9.38;;;1.88;;
75691;SDS011;64307;52.508;6.090;2023-12-28T17:18:15;8.38;;;2.13;;
75691;SDS011;64307;52.508;6.090;2023-12-28T17:20:40;13.93;;;2.05;;
75691;SDS011;64307;52.508;6.090;2023-12-28T17:23:15;9.52;;;2.20;;
75691;SDS011;64307;52.508;6.090;2023-12-28T17:25:47;12.68;;;1.90;;
75691;SDS011;64307;52.508;6.090;2023-12-28T17:28:15;10.77;;;2.00;;
75691;SDS011;64307;52.508;6.090;2023-12-28T17:30:45;9.57;;;1.83;;
75691;SDS011;64307;52.508;6.090;2023-12-28T17:33:11;5.47;;;1.95;;
75691;SDS011;64307;52.508;6.090;2023-12-28T17:35:37;14.45;;;2.50;;
75691;SDS011;64307;52.508;6.090;2023-12-28T17:38:04;12.02;;;1.95;;
75691;SDS011;64307;52.508;6.090;2023-12-28T17:40:30;11.10;;;1.67;;
75691;SDS011;64307;52.508;6.090;2023-12-28T17:45:29;8.90;;;2.23;;
75691;SDS011;64307;52.508;6.090;2023-12-28T17:48:00;10.50;;;1.90;;
75691;SDS011;64307;52.508;6.090;2023-12-28T17:50:29;9.23;;;1.45;;
75691;SDS011;64307;52.508;6.090;2023-12-28T17:55:19;8.23;;;1.73;;
75691;SDS011;64307;52.508;6.090;2023-12-28T18:00:10;9.88;;;1.90;;
75691;SDS011;64307;52.508;6.090;2023-12-28T18:02:36;9.98;;;2.10;;
75691;SDS011;64307;52.508;6.090;2023-12-28T18:05:02;11.50;;;2.28;;
75691;SDS011;64307;52.508;6.090;2023-12-28T18:07:27;12.90;;;2.55;;
75691;SDS011;64307;52.508;6.090;2023-12-28T18:09:53;10.80;;;1.90;;
75691;SDS011;64307;52.508;6.090;2023-12-28T18:14:43;10.05;;;1.95;;